North Hudson, Wisconsin
Current Conditions -  °F | °C
As of 4:11 PM on Wednesday 28 Jan 2015 (Local Time) from K21D Reporting Station
Haze Haze  
Wind Chill: 26°   Ceiling: 1000
Heat Index: 32°   Visibility: 5mi
Dew Point: 28°   Wind: 6mph
Humidity: 87%   Direction: 150°SSE
Pressure: 29.82"   Gusts: NA
Location:  44.9743°N, 92.6899°W
Report Text: K21D 282211Z AUTO 15005KT 5SM BR OVC010 00/M02 A2982 RMK AO2
Loading
Personal Weather Stations






























Interactive Weather Map New forecast layout! Learn more

10-Day Weather Forecast

Advertisements
Track Severe Weather on mobile